createdAt,value
2022-10-10T00:01:16.157Z,101288.56
2022-10-10T00:03:43.644Z,101281.47
2022-10-10T00:06:11.409Z,101281.50
2022-10-10T00:08:38.311Z,101271.72
2022-10-10T00:11:05.530Z,101265.53
2022-10-10T00:13:32.635Z,101255.81
2022-10-10T00:15:59.405Z,101261.97
2022-10-10T00:18:26.159Z,101267.28
2022-10-10T00:20:53.455Z,101257.53
2022-10-10T00:23:20.619Z,101262.84
2022-10-10T00:25:48.032Z,101261.97
2022-10-10T00:28:15.278Z,101260.16
2022-10-10T00:30:42.280Z,101254.88
2022-10-10T00:33:09.091Z,101253.06
2022-10-10T00:35:36.372Z,101248.63
2022-10-10T00:38:03.168Z,101252.19
2022-10-10T00:40:30.283Z,101256.56
2022-10-10T00:42:57.052Z,101248.63
2022-10-10T00:45:38.512Z,101247.75
2022-10-10T00:48:20.835Z,101244.19
2022-10-10T00:50:54.491Z,101237.09
2022-10-10T00:53:24.226Z,101240.59
2022-10-10T00:55:51.444Z,101241.50
2022-10-10T00:58:18.597Z,101243.25
2022-10-10T01:00:45.386Z,101231.75
2022-10-10T01:03:12.209Z,101225.53
2022-10-10T01:05:39.454Z,101224.66
2022-10-10T01:08:06.685Z,101229.94
2022-10-10T01:10:36.445Z,101226.41
2022-10-10T01:13:11.433Z,101219.34
2022-10-10T01:15:58.012Z,101229.94
2022-10-10T01:18:38.613Z,101230.78
2022-10-10T01:21:17.660Z,101225.47
2022-10-10T01:24:02.181Z,101228.13
2022-10-10T01:27:09.169Z,101215.72
2022-10-10T01:29:45.641Z,101217.50
2022-10-10T01:32:39.856Z,101214.81
2022-10-10T01:35:10.697Z,101205.09
2022-10-10T01:37:44.057Z,101204.22
2022-10-10T01:40:32.479Z,101194.50
2022-10-10T01:43:02.173Z,101193.59
2022-10-10T01:45:31.323Z,101187.41
2022-10-10T01:48:02.816Z,101187.41
2022-10-10T01:50:30.352Z,101190.94
2022-10-10T01:53:09.788Z,101180.34
2022-10-10T01:55:46.689Z,101175.03
2022-10-10T01:58:21.603Z,101176.78
2022-10-10T02:01:21.639Z,101175.88
2022-10-10T02:03:59.135Z,101178.56
2022-10-10T02:06:32.655Z,101171.44
2022-10-10T02:09:04.531Z,101171.47
2022-10-10T02:11:35.495Z,101168.78
2022-10-10T02:14:14.566Z,101162.59
2022-10-10T02:16:42.997Z,101158.22
2022-10-10T02:19:10.983Z,101148.47
2022-10-10T02:21:39.104Z,101153.78
2022-10-10T02:24:07.201Z,101148.47
2022-10-10T02:26:36.939Z,101141.41
2022-10-10T02:29:17.806Z,101145.84
2022-10-10T02:31:50.359Z,101143.19
2022-10-10T02:34:19.347Z,101144.06
2022-10-10T02:36:51.482Z,101141.41
2022-10-10T02:39:22.632Z,101139.63
2022-10-10T02:41:50.851Z,101134.31
2022-10-10T02:44:18.074Z,101133.44
2022-10-10T02:46:44.914Z,101129.00
2022-10-10T02:49:11.894Z,101129.00
2022-10-10T02:51:39.465Z,101126.38
2022-10-10T02:54:07.068Z,101123.69
2022-10-10T02:56:33.783Z,101127.25
2022-10-10T02:59:00.481Z,101128.13
2022-10-10T03:01:27.322Z,101121.94
2022-10-10T03:03:54.106Z,101116.63
2022-10-10T03:06:20.849Z,101123.66
2022-10-10T03:08:49.813Z,101132.50
2022-10-10T03:11:16.532Z,101129.88
2022-10-10T03:13:43.255Z,101120.16
2022-10-10T03:16:11.137Z,101120.16
2022-10-10T03:18:40.205Z,101117.47
2022-10-10T03:21:14.298Z,101115.72
2022-10-10T03:23:44.757Z,101116.56
2022-10-10T03:26:11.573Z,101113.03
2022-10-10T03:28:38.340Z,101113.91
2022-10-10T03:31:05.289Z,101117.41
2022-10-10T03:33:32.017Z,101111.22
2022-10-10T03:35:58.821Z,101103.25
2022-10-10T03:38:25.517Z,101104.13
2022-10-10T03:40:52.261Z,101104.13
2022-10-10T03:43:19.032Z,101098.84
2022-10-10T03:45:47.580Z,101097.94
2022-10-10T03:48:14.503Z,101100.56
2022-10-10T03:50:44.439Z,101101.44
2022-10-10T03:53:11.292Z,101100.56
2022-10-10T03:55:44.891Z,101097.03
2022-10-10T03:58:11.704Z,101099.69
2022-10-10T04:00:38.458Z,101097.91
2022-10-10T04:03:06.514Z,101094.38
2022-10-10T04:05:34.766Z,101094.38
2022-10-10T04:08:01.736Z,101086.41
2022-10-10T04:10:28.455Z,101094.34
2022-10-10T04:12:55.340Z,101089.06
2022-10-10T04:15:22.034Z,101082.88
2022-10-10T04:17:48.790Z,101086.44
2022-10-10T04:20:15.566Z,101081.09
2022-10-10T04:22:42.710Z,101079.31
2022-10-10T04:25:09.808Z,101074.91
2022-10-10T04:27:45.513Z,101066.97
2022-10-10T04:30:12.895Z,101071.38
2022-10-10T04:32:39.674Z,101065.19
2022-10-10T04:35:06.727Z,101073.13
2022-10-10T04:37:34.127Z,101068.69
2022-10-10T04:40:00.937Z,101073.94
2022-10-10T04:42:27.643Z,101068.66
2022-10-10T04:44:54.697Z,101060.72
2022-10-10T04:47:23.755Z,101054.53
2022-10-10T04:49:50.470Z,101050.13
2022-10-10T04:52:17.195Z,101055.41
2022-10-10T04:54:43.934Z,101051.84
2022-10-10T04:57:13.610Z,101038.59
2022-10-10T04:59:40.318Z,101044.78
2022-10-10T05:02:07.136Z,101035.06
2022-10-10T05:04:33.902Z,101037.72
2022-10-10T05:07:00.688Z,101039.47
2022-10-10T05:09:27.398Z,101041.25
2022-10-10T05:11:54.163Z,101036.81
2022-10-10T05:14:20.900Z,101035.94
2022-10-10T05:16:47.630Z,101034.19
2022-10-10T05:19:14.461Z,101029.75
2022-10-10T05:21:41.217Z,101028.00
2022-10-10T05:24:07.904Z,101018.28
2022-10-10T05:26:35.533Z,101021.78
2022-10-10T05:29:05.823Z,101020.06
2022-10-10T05:31:33.694Z,101017.41
2022-10-10T05:34:00.645Z,101012.09
2022-10-10T05:36:27.557Z,101015.63
2022-10-10T05:38:54.242Z,101006.78
2022-10-10T05:41:21.036Z,100998.84
2022-10-10T05:43:47.746Z,101002.38
2022-10-10T05:46:14.498Z,101000.59
2022-10-10T05:48:41.175Z,100997.97
2022-10-10T05:51:07.897Z,101004.16
2022-10-10T05:53:34.650Z,100999.75
2022-10-10T05:56:01.978Z,100986.50
2022-10-10T05:58:28.726Z,100990.91
2022-10-10T06:00:55.450Z,100990.91
2022-10-10T06:03:22.164Z,100992.66
2022-10-10T06:05:51.352Z,100988.28
2022-10-10T06:08:18.092Z,100994.47
2022-10-10T06:10:46.155Z,100989.19
2022-10-10T06:13:14.366Z,100997.13
2022-10-10T06:15:41.337Z,100980.41
2022-10-10T06:18:08.760Z,100989.22
2022-10-10T06:20:39.446Z,100989.22
2022-10-10T06:23:07.658Z,101002.47
2022-10-10T06:25:40.647Z,100990.19
2022-10-10T06:28:08.054Z,100991.94
2022-10-10T06:30:38.892Z,100999.03
2022-10-10T06:33:05.623Z,101002.56
2022-10-10T06:35:32.317Z,101002.59
2022-10-10T06:37:59.072Z,101003.50
2022-10-10T06:40:25.829Z,101007.00
2022-10-10T06:42:52.970Z,101003.53
2022-10-10T06:45:19.927Z,101008.84
2022-10-10T06:47:46.655Z,101006.19
2022-10-10T06:50:13.365Z,101008.88
2022-10-10T06:52:40.863Z,101007.13
2022-10-10T06:55:08.076Z,101015.97
2022-10-10T06:57:34.904Z,101009.81
2022-10-10T07:00:01.646Z,101006.31
2022-10-10T07:02:28.570Z,101013.38
2022-10-10T07:04:55.353Z,101010.72
2022-10-10T07:07:22.077Z,101006.34
2022-10-10T07:09:48.972Z,101007.25
2022-10-10T07:12:15.764Z,101001.06
2022-10-10T07:14:42.469Z,101004.63
2022-10-10T07:17:09.175Z,101004.63
2022-10-10T07:19:37.733Z,101006.41
2022-10-10T07:22:04.924Z,101014.41
2022-10-10T07:24:31.672Z,101001.09
2022-10-10T07:27:03.679Z,101005.53
2022-10-10T07:29:34.729Z,101004.59
2022-10-10T07:32:01.425Z,100993.97
2022-10-10T07:34:28.228Z,100988.59
2022-10-10T07:36:54.987Z,100984.16
2022-10-10T07:39:25.078Z,100981.50
2022-10-10T07:41:52.140Z,100990.31
2022-10-10T07:44:19.884Z,100990.28
2022-10-10T07:46:47.091Z,100996.44
2022-10-10T07:49:13.828Z,100998.16
2022-10-10T07:51:40.517Z,100987.47
2022-10-10T07:54:07.227Z,100976.88
2022-10-10T07:56:33.983Z,100977.72
2022-10-10T07:59:00.994Z,100985.66
2022-10-10T08:01:27.888Z,100983.84
2022-10-10T08:04:00.484Z,100982.91
2022-10-10T08:06:27.284Z,100988.19
2022-10-10T08:08:54.034Z,100978.41
2022-10-10T08:11:21.917Z,100980.09
2022-10-10T08:13:49.607Z,100974.75
2022-10-10T08:16:16.604Z,100963.13
2022-10-10T08:18:43.313Z,100960.44
2022-10-10T08:21:12.563Z,100959.47
2022-10-10T08:23:39.753Z,100962.09
2022-10-10T08:26:08.423Z,100963.81
2022-10-10T08:28:36.331Z,100968.19
2022-10-10T08:31:13.834Z,100959.25
2022-10-10T08:33:42.522Z,100960.94
2022-10-10T08:36:11.768Z,100959.06
2022-10-10T08:38:41.789Z,100963.50
2022-10-10T08:41:42.812Z,100965.13
2022-10-10T08:44:23.841Z,100962.38
2022-10-10T08:47:03.514Z,100959.59
2022-10-10T08:49:44.549Z,100960.38
2022-10-10T08:52:32.835Z,100950.53
2022-10-10T08:55:02.546Z,100946.91
2022-10-10T08:57:33.549Z,100957.47
2022-10-10T09:00:05.780Z,100952.06
2022-10-10T09:02:53.189Z,100945.78
2022-10-10T09:05:27.511Z,100949.25
2022-10-10T09:08:34.152Z,100944.75
2022-10-10T09:11:22.619Z,100950.03
2022-10-10T09:13:52.337Z,100950.00
2022-10-10T09:16:44.032Z,100945.53
2022-10-10T09:19:28.600Z,100954.38
2022-10-10T09:21:57.858Z,100948.13
2022-10-10T09:24:26.019Z,100946.28
2022-10-10T09:26:56.555Z,100939.09
2022-10-10T09:29:32.891Z,100938.16
2022-10-10T09:32:21.399Z,100935.47
2022-10-10T09:34:51.060Z,100919.41
2022-10-10T09:37:35.556Z,100922.91
2022-10-10T09:40:28.662Z,100920.16
2022-10-10T09:42:56.394Z,100921.88
2022-10-10T09:45:28.373Z,100920.91
2022-10-10T09:47:55.910Z,100925.28
2022-10-10T09:50:23.803Z,100916.34
2022-10-10T09:52:51.836Z,100921.59
2022-10-10T09:55:24.453Z,100910.84
2022-10-10T09:57:56.789Z,100910.81
2022-10-10T10:00:29.763Z,100909.84
2022-10-10T10:03:15.090Z,100906.19
2022-10-10T10:05:45.000Z,100909.69
2022-10-10T10:08:19.828Z,100906.06
2022-10-10T10:10:46.630Z,100905.16
2022-10-10T10:13:23.774Z,100901.50
2022-10-10T10:15:55.431Z,100913.00
2022-10-10T10:18:28.760Z,100906.75
2022-10-10T10:21:08.097Z,100909.34
2022-10-10T10:23:43.915Z,100919.97
2022-10-10T10:26:37.077Z,100912.81
2022-10-10T10:29:05.993Z,100915.34
2022-10-10T10:31:44.844Z,100917.09
2022-10-10T10:34:25.861Z,100909.84
2022-10-10T10:37:10.407Z,100912.41
2022-10-10T10:39:52.823Z,100915.88
2022-10-10T10:42:27.459Z,100914.94
2022-10-10T10:45:09.877Z,100911.28
2022-10-10T10:47:54.998Z,100920.09
2022-10-10T10:50:47.010Z,100919.13
2022-10-10T10:53:41.345Z,100917.28
2022-10-10T10:56:38.163Z,100919.88
2022-10-10T11:02:07.240Z,100909.91
2022-10-10T11:05:18.787Z,100907.16
2022-10-10T11:07:46.074Z,100910.56
2022-10-10T11:10:37.188Z,100905.16
2022-10-10T11:13:10.010Z,100908.59
2022-10-10T11:16:06.165Z,100908.50
2022-10-10T11:18:43.607Z,100909.28
2022-10-10T11:21:25.177Z,100901.16
2022-10-10T11:24:03.264Z,100901.94
2022-10-10T11:26:33.007Z,100901.84
2022-10-10T11:29:42.871Z,100905.25
2022-10-10T11:32:15.922Z,100893.50
2022-10-10T11:34:55.486Z,100896.00
2022-10-10T11:37:26.050Z,100892.31
2022-10-10T11:39:55.896Z,100901.13
2022-10-10T11:42:23.395Z,100906.31
2022-10-10T11:44:57.329Z,100908.84
2022-10-10T11:47:38.053Z,100903.34
2022-10-10T11:50:18.904Z,100900.50
2022-10-10T11:53:23.374Z,100907.47
2022-10-10T11:55:56.048Z,100897.59
2022-10-10T11:58:34.861Z,100887.63
2022-10-10T12:01:12.147Z,100893.75
2022-10-10T12:03:38.910Z,100891.81
2022-10-10T12:06:22.282Z,100889.00
2022-10-10T12:09:03.882Z,100883.56
2022-10-10T12:11:43.651Z,100877.19
2022-10-10T12:14:14.768Z,100883.31
2022-10-10T12:16:43.727Z,100879.63
2022-10-10T12:19:19.791Z,100881.25
2022-10-10T12:21:54.412Z,100890.06
2022-10-10T12:24:21.481Z,100888.22
2022-10-10T12:26:57.393Z,100888.19
2022-10-10T12:30:09.215Z,100897.03
2022-10-10T12:32:46.492Z,100889.88
2022-10-10T12:35:33.107Z,100884.41
2022-10-10T12:38:06.151Z,100879.91
2022-10-10T12:40:34.144Z,100877.13
2022-10-10T12:43:18.617Z,100877.09
2022-10-10T12:46:16.379Z,100880.63
2022-10-10T12:48:43.660Z,100862.69
2022-10-10T12:51:22.112Z,100870.56
2022-10-10T12:56:43.750Z,100862.25
2022-10-10T12:59:19.928Z,100865.56
2022-10-10T13:01:52.304Z,100864.44
2022-10-10T13:04:19.447Z,100856.25
2022-10-10T13:06:47.163Z,100867.69
2022-10-10T13:09:20.565Z,100858.56
2022-10-10T13:11:59.602Z,100867.28
2022-10-10T13:14:36.485Z,100856.41
2022-10-10T13:17:11.264Z,100867.94
2022-10-10T13:19:50.027Z,100854.44
2022-10-10T13:22:17.482Z,100861.50
2022-10-10T13:24:45.417Z,100859.56
2022-10-10T13:27:18.529Z,100859.53
2022-10-10T13:29:45.494Z,100865.72
2022-10-10T13:32:15.433Z,100861.19
2022-10-10T13:34:49.440Z,100864.59
2022-10-10T13:37:17.874Z,100865.41
2022-10-10T13:39:45.079Z,100861.69
2022-10-10T13:42:31.713Z,100866.13
2022-10-10T13:45:05.636Z,100873.22
2022-10-10T13:47:52.039Z,100868.72
2022-10-10T13:50:21.839Z,100865.13
2022-10-10T13:52:48.624Z,100871.31
2022-10-10T13:55:40.511Z,100867.69
2022-10-10T13:58:15.790Z,100872.03
2022-10-10T14:00:42.748Z,100866.56
2022-10-10T14:03:18.754Z,100877.19
2022-10-10T14:05:48.422Z,100874.41
2022-10-10T14:08:25.641Z,100878.75
2022-10-10T14:11:02.162Z,100869.69
2022-10-10T14:13:33.733Z,100865.06
2022-10-10T14:16:18.812Z,100867.69
2022-10-10T14:18:46.165Z,100869.56
2022-10-10T14:21:15.602Z,100884.78
2022-10-10T14:23:42.318Z,100882.16
2022-10-10T14:26:15.843Z,100891.97
2022-10-10T14:28:43.005Z,100884.78
2022-10-10T14:31:17.854Z,100893.69
2022-10-10T14:33:44.594Z,100886.47
2022-10-10T14:36:12.045Z,100887.38
2022-10-10T14:38:41.433Z,100878.34
2022-10-10T14:41:10.255Z,100883.72
2022-10-10T14:43:37.054Z,100876.53
2022-10-10T14:46:03.943Z,100884.63
2022-10-10T14:48:30.864Z,100883.75
2022-10-10T14:50:57.581Z,100882.94
2022-10-10T14:53:24.492Z,100884.78
2022-10-10T14:55:55.948Z,100886.63
2022-10-10T14:58:23.248Z,100892.13
2022-10-10T15:00:54.048Z,100894.97
2022-10-10T15:03:24.776Z,100891.50
2022-10-10T15:05:51.590Z,100898.78
2022-10-10T15:08:19.381Z,100903.41
2022-10-10T15:10:46.654Z,100898.09
2022-10-10T15:13:14.104Z,100898.09
2022-10-10T15:15:41.414Z,100904.47
2022-10-10T15:18:25.659Z,100908.97
2022-10-10T15:21:02.012Z,100915.28
2022-10-10T15:23:34.261Z,100910.88
2022-10-10T15:26:01.233Z,100913.56
2022-10-10T15:28:28.113Z,100911.78
2022-10-10T15:30:55.024Z,100917.28
2022-10-10T15:33:21.867Z,100922.63
2022-10-10T15:36:08.989Z,100926.28
2022-10-10T15:38:37.344Z,100937.94
2022-10-10T15:41:06.986Z,100925.50
2022-10-10T15:43:55.736Z,100934.47
2022-10-10T15:46:27.093Z,100931.91
2022-10-10T15:48:56.872Z,100939.09
2022-10-10T15:51:23.859Z,100943.59
2022-10-10T15:53:52.046Z,100945.47
2022-10-10T15:56:18.994Z,100948.19
2022-10-10T15:58:45.792Z,100942.00
2022-10-10T16:01:18.563Z,100942.94
2022-10-10T16:03:47.593Z,100951.97
2022-10-10T16:06:22.910Z,100961.84
2022-10-10T16:08:59.409Z,100961.03
2022-10-10T16:11:37.080Z,100958.50
2022-10-10T16:14:03.844Z,100957.78
2022-10-10T16:16:31.727Z,100957.03
2022-10-10T16:18:59.694Z,100958.16
2022-10-10T16:21:26.933Z,100961.84
2022-10-10T16:23:58.133Z,100970.00
2022-10-10T16:26:29.088Z,100962.03
2022-10-10T16:28:56.537Z,100979.09
2022-10-10T16:31:24.998Z,100965.72
2022-10-10T16:33:51.841Z,100969.31
2022-10-10T16:36:20.911Z,100976.47
2022-10-10T16:38:57.509Z,100976.47
2022-10-10T16:41:47.109Z,100981.00
2022-10-10T16:44:18.368Z,100979.22
2022-10-10T16:46:45.301Z,100992.63
2022-10-10T16:49:16.296Z,100994.41
2022-10-10T16:51:47.999Z,100998.00
2022-10-10T16:54:14.728Z,100998.88
2022-10-10T16:56:41.888Z,101011.41
2022-10-10T16:59:08.585Z,101011.41
2022-10-10T17:02:01.125Z,101015.88
2022-10-10T17:04:28.109Z,101027.56
2022-10-10T17:06:54.869Z,101043.84
2022-10-10T17:09:22.796Z,101053.94
2022-10-10T17:11:51.472Z,101063.09
2022-10-10T17:14:20.018Z,101068.66
2022-10-10T17:17:11.012Z,101078.56
2022-10-10T17:19:33.767Z,101076.88
2022-10-10T17:22:01.231Z,101096.59
2022-10-10T17:24:27.978Z,101096.66
2022-10-10T17:26:54.739Z,101102.03
2022-10-10T17:29:23.512Z,101115.53
2022-10-10T17:31:50.292Z,101113.75
2022-10-10T17:34:17.017Z,101120.91
2022-10-10T17:36:43.741Z,101135.22
2022-10-10T17:39:10.452Z,101135.28
2022-10-10T17:41:37.300Z,101140.78
2022-10-10T17:44:08.386Z,101153.38
2022-10-10T17:46:36.621Z,101150.00
2022-10-10T17:49:05.120Z,101154.66
2022-10-10T17:51:32.655Z,101160.16
2022-10-10T17:54:03.469Z,101163.00
2022-10-10T17:56:30.647Z,101176.50
2022-10-10T17:58:59.258Z,101171.25
2022-10-10T18:01:26.203Z,101175.88
2022-10-10T18:03:53.030Z,101184.91
2022-10-10T18:06:21.558Z,101184.09
2022-10-10T18:08:52.394Z,101188.59
2022-10-10T18:11:24.608Z,101197.59
2022-10-10T18:13:52.001Z,101191.38
2022-10-10T18:16:22.775Z,101194.94
2022-10-10T18:18:51.660Z,101192.38
2022-10-10T18:21:21.092Z,101201.34
2022-10-10T18:23:48.261Z,101199.59
2022-10-10T18:26:17.290Z,101202.25
2022-10-10T18:28:47.029Z,101196.97
2022-10-10T18:31:16.632Z,101197.88
2022-10-10T18:33:44.804Z,101203.22
2022-10-10T18:36:14.198Z,101212.19
2022-10-10T18:38:41.030Z,101219.34
2022-10-10T18:41:13.369Z,101223.84
2022-10-10T18:43:40.703Z,101229.25
2022-10-10T18:46:08.587Z,101234.59
2022-10-10T18:48:36.068Z,101228.34
2022-10-10T18:51:08.464Z,101229.25
2022-10-10T18:53:39.728Z,101231.00
2022-10-10T18:56:07.430Z,101237.22
2022-10-10T18:58:36.044Z,101243.50
2022-10-10T19:01:09.071Z,101250.59
2022-10-10T19:03:40.065Z,101256.88
2022-10-10T19:06:08.817Z,101260.53
2022-10-10T19:08:35.541Z,101267.69
2022-10-10T19:11:03.408Z,101266.88
2022-10-10T19:13:30.683Z,101268.72
2022-10-10T19:16:03.884Z,101281.22
2022-10-10T19:18:30.645Z,101283.97
2022-10-10T19:21:02.499Z,101284.94
2022-10-10T19:23:30.153Z,101293.91
2022-10-10T19:26:01.910Z,101298.34
2022-10-10T19:28:29.210Z,101308.16
2022-10-10T19:30:55.977Z,101315.31
2022-10-10T19:33:22.954Z,101312.63
2022-10-10T19:35:52.156Z,101315.34
2022-10-10T19:38:19.220Z,101326.00
2022-10-10T19:40:50.193Z,101332.25
2022-10-10T19:43:17.681Z,101338.53
2022-10-10T19:45:48.710Z,101345.69
2022-10-10T19:48:15.761Z,101344.84
2022-10-10T19:50:43.824Z,101343.97
2022-10-10T19:53:12.939Z,101345.81
2022-10-10T19:55:40.878Z,101353.84
2022-10-10T19:58:07.685Z,101355.66
2022-10-10T20:00:34.417Z,101357.47
2022-10-10T20:03:01.145Z,101360.19
2022-10-10T20:05:27.949Z,101370.06
2022-10-10T20:07:54.659Z,101377.19
2022-10-10T20:10:21.582Z,101387.94
2022-10-10T20:12:49.140Z,101394.22
2022-10-10T20:15:15.893Z,101403.16
2022-10-10T20:17:42.605Z,101406.72
2022-10-10T20:20:09.508Z,101410.28
2022-10-10T20:22:36.215Z,101421.03
2022-10-10T20:25:04.368Z,101432.66
2022-10-10T20:27:34.125Z,101434.50
2022-10-10T20:30:00.824Z,101432.81
2022-10-10T20:32:27.549Z,101432.88
2022-10-10T20:34:54.225Z,101447.16
2022-10-10T20:37:20.937Z,101457.00
2022-10-10T20:39:47.830Z,101449.94
2022-10-10T20:42:14.678Z,101461.56
2022-10-10T20:44:41.622Z,101461.63
2022-10-10T20:47:08.301Z,101467.00
2022-10-10T20:49:35.007Z,101465.25
2022-10-10T20:52:01.745Z,101464.44
2022-10-10T20:54:28.435Z,101468.00
2022-10-10T20:56:55.165Z,101471.59
2022-10-10T20:59:24.271Z,101474.28
2022-10-10T21:01:51.120Z,101477.88
2022-10-10T21:04:17.897Z,101477.03
2022-10-10T21:06:44.655Z,101483.25
2022-10-10T21:09:13.817Z,101486.84
2022-10-10T21:11:40.681Z,101492.22
2022-10-10T21:14:07.673Z,101490.47
2022-10-10T21:16:39.446Z,101500.22
2022-10-10T21:19:09.205Z,101511.81
2022-10-10T21:21:36.607Z,101511.84
2022-10-10T21:24:05.641Z,101511.88
2022-10-10T21:26:32.873Z,101520.78
2022-10-10T21:29:00.808Z,101523.47
2022-10-10T21:31:30.080Z,101520.81
2022-10-10T21:33:56.994Z,101523.50
2022-10-10T21:36:25.140Z,101527.97
2022-10-10T21:38:51.953Z,101528.88
2022-10-10T21:41:20.308Z,101533.31
2022-10-10T21:43:54.946Z,101533.34
2022-10-10T21:46:24.229Z,101539.59
2022-10-10T21:48:52.816Z,101553.81
2022-10-10T21:51:20.392Z,101548.50
2022-10-10T21:53:47.579Z,101546.75
2022-10-10T21:56:14.499Z,101558.31
2022-10-10T21:58:42.691Z,101556.56
2022-10-10T22:01:17.336Z,101556.53
2022-10-10T22:03:45.777Z,101562.78
2022-10-10T22:06:14.730Z,101568.09
2022-10-10T22:08:42.328Z,101569.03
2022-10-10T22:11:12.618Z,101574.38
2022-10-10T22:13:39.538Z,101577.03
2022-10-10T22:16:07.915Z,101576.16
2022-10-10T22:18:35.519Z,101581.47
2022-10-10T22:21:04.403Z,101585.06
2022-10-10T22:23:31.141Z,101584.19
2022-10-10T22:25:58.106Z,101579.72
2022-10-10T22:28:25.065Z,101585.97
2022-10-10T22:30:51.800Z,101578.84
2022-10-10T22:33:18.493Z,101590.38
2022-10-10T22:35:45.265Z,101593.94
2022-10-10T22:38:12.012Z,101590.41
2022-10-10T22:40:38.729Z,101600.19
2022-10-10T22:43:05.482Z,101592.19
2022-10-10T22:45:32.188Z,101595.78
2022-10-10T22:47:58.956Z,101597.53
2022-10-10T22:50:25.644Z,101607.28
2022-10-10T22:52:52.343Z,101600.16
2022-10-10T22:55:19.181Z,101614.38
2022-10-10T22:57:46.128Z,101601.91
2022-10-10T23:00:13.517Z,101615.25
2022-10-10T23:02:40.238Z,101610.81
2022-10-10T23:05:07.452Z,101612.59
2022-10-10T23:07:34.494Z,101617.03
2022-10-10T23:10:01.253Z,101619.72
2022-10-10T23:12:27.977Z,101619.69
2022-10-10T23:14:54.770Z,101617.06
2022-10-10T23:17:21.488Z,101620.59
2022-10-10T23:19:48.212Z,101610.81
2022-10-10T23:22:14.961Z,101619.72
2022-10-10T23:24:41.774Z,101625.91
2022-10-10T23:27:08.499Z,101622.34
2022-10-10T23:29:35.273Z,101625.91
2022-10-10T23:32:01.989Z,101636.56
2022-10-10T23:34:28.755Z,101635.66
2022-10-10T23:36:55.472Z,101637.44
2022-10-10T23:39:22.344Z,101637.44
2022-10-10T23:41:49.079Z,101636.56
2022-10-10T23:44:15.853Z,101641.88
2022-10-10T23:46:42.545Z,101640.09
2022-10-10T23:49:09.771Z,101648.97
2022-10-10T23:51:36.529Z,101650.72
2022-10-10T23:54:03.274Z,101653.38
2022-10-10T23:56:29.969Z,101663.13
2022-10-10T23:58:56.716Z,101656.06
